sensor_id;sensor_type;location;lat;lon;timestamp;temperature;humidity
38592;DHT22;24356;48.460;11.450;2023-04-03T00:01:26;3.80;84.70
38592;DHT22;24356;48.460;11.450;2023-04-03T00:03:52;3.80;84.70
38592;DHT22;24356;48.460;11.450;2023-04-03T00:06:17;3.80;84.80
38592;DHT22;24356;48.460;11.450;2023-04-03T00:08:43;3.80;84.60
38592;DHT22;24356;48.460;11.450;2023-04-03T00:11:10;3.80;84.80
38592;DHT22;24356;48.460;11.450;2023-04-03T00:13:36;3.80;84.70
38592;DHT22;24356;48.460;11.450;2023-04-03T00:16:02;3.80;84.80
38592;DHT22;24356;48.460;11.450;2023-04-03T00:18:28;3.80;84.70
38592;DHT22;24356;48.460;11.450;2023-04-03T00:20:54;3.80;84.60
38592;DHT22;24356;48.460;11.450;2023-04-03T00:23:20;3.80;84.70
38592;DHT22;24356;48.460;11.450;2023-04-03T00:25:46;3.80;84.70
38592;DHT22;24356;48.460;11.450;2023-04-03T00:28:11;3.80;84.60
38592;DHT22;24356;48.460;11.450;2023-04-03T00:30:37;3.70;84.70
38592;DHT22;24356;48.460;11.450;2023-04-03T00:33:03;3.70;84.80
38592;DHT22;24356;48.460;11.450;2023-04-03T00:35:28;3.70;84.80
38592;DHT22;24356;48.460;11.450;2023-04-03T00:37:55;3.70;84.80
38592;DHT22;24356;48.460;11.450;2023-04-03T00:40:23;3.70;84.80
38592;DHT22;24356;48.460;11.450;2023-04-03T00:42:53;3.70;84.70
38592;DHT22;24356;48.460;11.450;2023-04-03T00:47:58;3.70;84.70
38592;DHT22;24356;48.460;11.450;2023-04-03T00:50:27;3.70;84.80
38592;DHT22;24356;48.460;11.450;2023-04-03T00:52:53;3.70;84.70
38592;DHT22;24356;48.460;11.450;2023-04-03T00:55:19;3.70;84.70
38592;DHT22;24356;48.460;11.450;2023-04-03T00:57:46;3.70;84.60
38592;DHT22;24356;48.460;11.450;2023-04-03T01:00:14;3.70;84.70
38592;DHT22;24356;48.460;11.450;2023-04-03T01:02:41;3.70;84.60
38592;DHT22;24356;48.460;11.450;2023-04-03T01:05:07;3.70;84.60
38592;DHT22;24356;48.460;11.450;2023-04-03T01:07:33;3.60;84.70
38592;DHT22;24356;48.460;11.450;2023-04-03T01:10:05;3.70;84.60
38592;DHT22;24356;48.460;11.450;2023-04-03T01:12:35;3.60;84.60
38592;DHT22;24356;48.460;11.450;2023-04-03T01:15:22;3.60;84.70
38592;DHT22;24356;48.460;11.450;2023-04-03T01:17:56;3.60;84.60
38592;DHT22;24356;48.460;11.450;2023-04-03T01:25:43;3.60;84.70
38592;DHT22;24356;48.460;11.450;2023-04-03T01:28:12;3.60;84.60
38592;DHT22;24356;48.460;11.450;2023-04-03T01:31:02;3.60;84.60
38592;DHT22;24356;48.460;11.450;2023-04-03T01:33:31;3.60;84.70
38592;DHT22;24356;48.460;11.450;2023-04-03T01:35:57;3.60;84.70
38592;DHT22;24356;48.460;11.450;2023-04-03T01:38:23;3.60;84.70
38592;DHT22;24356;48.460;11.450;2023-04-03T01:40:48;3.60;84.70
38592;DHT22;24356;48.460;11.450;2023-04-03T01:43:14;3.60;84.80
38592;DHT22;24356;48.460;11.450;2023-04-03T01:45:40;3.60;84.70
38592;DHT22;24356;48.460;11.450;2023-04-03T01:48:05;3.60;84.80
38592;DHT22;24356;48.460;11.450;2023-04-03T01:50:31;3.60;84.80
38592;DHT22;24356;48.460;11.450;2023-04-03T01:52:57;3.50;84.70
38592;DHT22;24356;48.460;11.450;2023-04-03T01:55:22;3.50;84.70
38592;DHT22;24356;48.460;11.450;2023-04-03T01:57:48;3.50;84.80
38592;DHT22;24356;48.460;11.450;2023-04-03T02:00:14;3.60;84.70
38592;DHT22;24356;48.460;11.450;2023-04-03T02:02:39;3.50;84.70
38592;DHT22;24356;48.460;11.450;2023-04-03T02:05:06;3.50;84.70
38592;DHT22;24356;48.460;11.450;2023-04-03T02:07:31;3.50;84.70
38592;DHT22;24356;48.460;11.450;2023-04-03T02:09:57;3.50;84.70
38592;DHT22;24356;48.460;11.450;2023-04-03T02:12:22;3.50;84.70
38592;DHT22;24356;48.460;11.450;2023-04-03T02:14:48;3.50;84.70
38592;DHT22;24356;48.460;11.450;2023-04-03T02:17:13;3.50;84.70
38592;DHT22;24356;48.460;11.450;2023-04-03T02:19:39;3.50;84.80
38592;DHT22;24356;48.460;11.450;2023-04-03T02:22:05;3.50;84.60
38592;DHT22;24356;48.460;11.450;2023-04-03T02:24:31;3.50;84.70
38592;DHT22;24356;48.460;11.450;2023-04-03T02:26:57;3.50;84.70
38592;DHT22;24356;48.460;11.450;2023-04-03T02:29:23;3.50;84.70
38592;DHT22;24356;48.460;11.450;2023-04-03T02:31:49;3.50;84.70
38592;DHT22;24356;48.460;11.450;2023-04-03T02:34:15;3.40;84.70
38592;DHT22;24356;48.460;11.450;2023-04-03T02:36:41;3.40;84.70
38592;DHT22;24356;48.460;11.450;2023-04-03T02:39:06;3.40;84.80
38592;DHT22;24356;48.460;11.450;2023-04-03T02:41:32;3.40;84.80
38592;DHT22;24356;48.460;11.450;2023-04-03T02:44:05;3.40;84.80
38592;DHT22;24356;48.460;11.450;2023-04-03T02:46:31;3.40;84.80
38592;DHT22;24356;48.460;11.450;2023-04-03T02:48:57;3.40;84.80
38592;DHT22;24356;48.460;11.450;2023-04-03T02:51:23;3.40;84.90
38592;DHT22;24356;48.460;11.450;2023-04-03T02:53:49;3.40;84.90
38592;DHT22;24356;48.460;11.450;2023-04-03T02:56:16;3.40;84.80
38592;DHT22;24356;48.460;11.450;2023-04-03T02:58:42;3.40;84.80
38592;DHT22;24356;48.460;11.450;2023-04-03T03:01:08;3.40;84.80
38592;DHT22;24356;48.460;11.450;2023-04-03T03:03:33;3.40;84.80
38592;DHT22;24356;48.460;11.450;2023-04-03T03:06:08;3.30;84.80
38592;DHT22;24356;48.460;11.450;2023-04-03T03:08:34;3.30;84.80
38592;DHT22;24356;48.460;11.450;2023-04-03T03:11:00;3.30;84.80
38592;DHT22;24356;48.460;11.450;2023-04-03T03:13:25;3.30;84.80
38592;DHT22;24356;48.460;11.450;2023-04-03T03:15:51;3.30;84.80
38592;DHT22;24356;48.460;11.450;2023-04-03T03:18:17;3.30;84.80
38592;DHT22;24356;48.460;11.450;2023-04-03T03:20:43;3.30;84.80
38592;DHT22;24356;48.460;11.450;2023-04-03T03:23:08;3.30;84.80
38592;DHT22;24356;48.460;11.450;2023-04-03T03:25:40;3.30;84.80
38592;DHT22;24356;48.460;11.450;2023-04-03T03:28:06;3.30;84.80
38592;DHT22;24356;48.460;11.450;2023-04-03T03:30:33;3.30;84.80
38592;DHT22;24356;48.460;11.450;2023-04-03T03:32:58;3.30;84.70
38592;DHT22;24356;48.460;11.450;2023-04-03T03:35:24;3.30;84.70
38592;DHT22;24356;48.460;11.450;2023-04-03T03:37:49;3.30;84.70
38592;DHT22;24356;48.460;11.450;2023-04-03T03:40:15;3.30;84.70
38592;DHT22;24356;48.460;11.450;2023-04-03T03:42:41;3.30;84.70
38592;DHT22;24356;48.460;11.450;2023-04-03T03:45:07;3.30;84.70
38592;DHT22;24356;48.460;11.450;2023-04-03T03:47:33;3.30;84.70
38592;DHT22;24356;48.460;11.450;2023-04-03T03:49:58;3.20;84.70
38592;DHT22;24356;48.460;11.450;2023-04-03T03:52:25;3.20;84.70
38592;DHT22;24356;48.460;11.450;2023-04-03T03:54:51;3.20;84.70
38592;DHT22;24356;48.460;11.450;2023-04-03T03:57:17;3.20;84.70
38592;DHT22;24356;48.460;11.450;2023-04-03T03:59:42;3.20;84.70
38592;DHT22;24356;48.460;11.450;2023-04-03T04:02:10;3.20;84.70
38592;DHT22;24356;48.460;11.450;2023-04-03T04:04:36;3.20;84.80
38592;DHT22;24356;48.460;11.450;2023-04-03T04:07:02;3.20;84.80
38592;DHT22;24356;48.460;11.450;2023-04-03T04:09:28;3.20;84.70
38592;DHT22;24356;48.460;11.450;2023-04-03T04:11:54;3.20;84.80
38592;DHT22;24356;48.460;11.450;2023-04-03T04:14:19;3.20;84.80
38592;DHT22;24356;48.460;11.450;2023-04-03T04:16:47;3.20;84.80
38592;DHT22;24356;48.460;11.450;2023-04-03T04:19:13;3.20;84.80
38592;DHT22;24356;48.460;11.450;2023-04-03T04:21:40;3.20;85.00
38592;DHT22;24356;48.460;11.450;2023-04-03T04:24:07;3.10;85.00
38592;DHT22;24356;48.460;11.450;2023-04-03T04:26:33;3.10;85.00
38592;DHT22;24356;48.460;11.450;2023-04-03T04:28:59;3.10;84.80
38592;DHT22;24356;48.460;11.450;2023-04-03T04:31:24;3.10;84.90
38592;DHT22;24356;48.460;11.450;2023-04-03T04:33:50;3.10;84.90
38592;DHT22;24356;48.460;11.450;2023-04-03T04:36:15;3.10;84.90
38592;DHT22;24356;48.460;11.450;2023-04-03T04:38:42;3.10;84.90
38592;DHT22;24356;48.460;11.450;2023-04-03T04:41:07;3.10;84.80
38592;DHT22;24356;48.460;11.450;2023-04-03T04:43:33;3.10;84.90
38592;DHT22;24356;48.460;11.450;2023-04-03T04:46:09;3.10;84.90
38592;DHT22;24356;48.460;11.450;2023-04-03T04:48:37;3.00;84.90
38592;DHT22;24356;48.460;11.450;2023-04-03T04:51:03;3.00;84.90
38592;DHT22;24356;48.460;11.450;2023-04-03T04:53:29;3.00;84.90
38592;DHT22;24356;48.460;11.450;2023-04-03T04:55:54;3.00;85.00
38592;DHT22;24356;48.460;11.450;2023-04-03T04:58:20;3.00;85.00
38592;DHT22;24356;48.460;11.450;2023-04-03T05:00:46;3.00;85.00
38592;DHT22;24356;48.460;11.450;2023-04-03T05:03:12;3.00;85.00
38592;DHT22;24356;48.460;11.450;2023-04-03T05:05:38;3.00;85.00
38592;DHT22;24356;48.460;11.450;2023-04-03T05:08:04;3.00;85.00
38592;DHT22;24356;48.460;11.450;2023-04-03T05:10:30;3.00;85.10
38592;DHT22;24356;48.460;11.450;2023-04-03T05:12:56;3.00;85.00
38592;DHT22;24356;48.460;11.450;2023-04-03T05:15:22;3.00;85.00
38592;DHT22;24356;48.460;11.450;2023-04-03T05:17:48;3.00;85.00
38592;DHT22;24356;48.460;11.450;2023-04-03T05:20:13;3.00;85.10
38592;DHT22;24356;48.460;11.450;2023-04-03T05:22:39;3.00;85.10
38592;DHT22;24356;48.460;11.450;2023-04-03T05:25:05;3.00;85.10
38592;DHT22;24356;48.460;11.450;2023-04-03T05:27:31;3.00;85.10
38592;DHT22;24356;48.460;11.450;2023-04-03T05:29:57;3.00;85.10
38592;DHT22;24356;48.460;11.450;2023-04-03T05:32:23;3.00;85.10
38592;DHT22;24356;48.460;11.450;2023-04-03T05:34:50;3.00;85.10
38592;DHT22;24356;48.460;11.450;2023-04-03T05:37:17;3.00;85.10
38592;DHT22;24356;48.460;11.450;2023-04-03T05:39:42;3.00;85.10
38592;DHT22;24356;48.460;11.450;2023-04-03T05:42:08;3.10;85.10
38592;DHT22;24356;48.460;11.450;2023-04-03T05:44:33;3.00;85.10
38592;DHT22;24356;48.460;11.450;2023-04-03T05:46:59;3.00;85.10
38592;DHT22;24356;48.460;11.450;2023-04-03T05:49:25;3.10;85.20
38592;DHT22;24356;48.460;11.450;2023-04-03T05:51:51;3.10;85.20
38592;DHT22;24356;48.460;11.450;2023-04-03T05:54:25;3.10;85.20
38592;DHT22;24356;48.460;11.450;2023-04-03T05:56:52;3.10;85.30
38592;DHT22;24356;48.460;11.450;2023-04-03T05:59:18;3.10;85.20
38592;DHT22;24356;48.460;11.450;2023-04-03T06:01:45;3.10;85.20
38592;DHT22;24356;48.460;11.450;2023-04-03T06:04:11;3.20;85.20
38592;DHT22;24356;48.460;11.450;2023-04-03T06:06:45;3.20;85.20
38592;DHT22;24356;48.460;11.450;2023-04-03T06:09:11;3.20;85.20
38592;DHT22;24356;48.460;11.450;2023-04-03T06:11:37;3.30;85.20
38592;DHT22;24356;48.460;11.450;2023-04-03T06:14:02;3.30;85.20
38592;DHT22;24356;48.460;11.450;2023-04-03T06:16:28;3.30;85.20
38592;DHT22;24356;48.460;11.450;2023-04-03T06:18:54;3.30;85.10
38592;DHT22;24356;48.460;11.450;2023-04-03T06:21:20;3.40;85.10
38592;DHT22;24356;48.460;11.450;2023-04-03T06:23:46;3.40;85.10
38592;DHT22;24356;48.460;11.450;2023-04-03T06:26:11;3.40;85.10
38592;DHT22;24356;48.460;11.450;2023-04-03T06:28:37;3.50;85.00
38592;DHT22;24356;48.460;11.450;2023-04-03T06:31:02;3.50;85.00
38592;DHT22;24356;48.460;11.450;2023-04-03T06:33:28;3.50;84.90
38592;DHT22;24356;48.460;11.450;2023-04-03T06:36:03;3.60;84.90
38592;DHT22;24356;48.460;11.450;2023-04-03T06:38:29;3.60;84.90
38592;DHT22;24356;48.460;11.450;2023-04-03T06:40:54;3.60;85.00
38592;DHT22;24356;48.460;11.450;2023-04-03T06:43:21;3.70;84.90
38592;DHT22;24356;48.460;11.450;2023-04-03T06:45:47;3.70;84.90
38592;DHT22;24356;48.460;11.450;2023-04-03T06:48:12;3.80;84.80
38592;DHT22;24356;48.460;11.450;2023-04-03T06:50:38;3.80;84.80
38592;DHT22;24356;48.460;11.450;2023-04-03T06:53:04;3.80;84.70
38592;DHT22;24356;48.460;11.450;2023-04-03T06:55:31;3.90;84.60
38592;DHT22;24356;48.460;11.450;2023-04-03T06:57:57;3.90;84.60
38592;DHT22;24356;48.460;11.450;2023-04-03T07:00:22;4.00;84.60
38592;DHT22;24356;48.460;11.450;2023-04-03T07:02:48;4.00;84.50
38592;DHT22;24356;48.460;11.450;2023-04-03T07:05:13;4.00;84.50
38592;DHT22;24356;48.460;11.450;2023-04-03T07:07:39;4.10;84.50
38592;DHT22;24356;48.460;11.450;2023-04-03T07:10:06;4.10;84.40
38592;DHT22;24356;48.460;11.450;2023-04-03T07:12:32;4.10;84.40
38592;DHT22;24356;48.460;11.450;2023-04-03T07:14:58;4.20;84.40
38592;DHT22;24356;48.460;11.450;2023-04-03T07:17:24;4.20;84.30
38592;DHT22;24356;48.460;11.450;2023-04-03T07:19:50;4.20;84.20
38592;DHT22;24356;48.460;11.450;2023-04-03T07:22:16;4.20;84.10
38592;DHT22;24356;48.460;11.450;2023-04-03T07:24:42;4.30;84.00
38592;DHT22;24356;48.460;11.450;2023-04-03T07:27:07;4.30;84.00
38592;DHT22;24356;48.460;11.450;2023-04-03T07:29:34;4.30;83.90
38592;DHT22;24356;48.460;11.450;2023-04-03T07:31:59;4.40;83.90
38592;DHT22;24356;48.460;11.450;2023-04-03T07:34:26;4.40;83.80
38592;DHT22;24356;48.460;11.450;2023-04-03T07:36:52;4.40;83.80
38592;DHT22;24356;48.460;11.450;2023-04-03T07:39:17;4.50;83.80
38592;DHT22;24356;48.460;11.450;2023-04-03T07:41:43;4.50;83.70
38592;DHT22;24356;48.460;11.450;2023-04-03T07:44:08;4.50;83.60
38592;DHT22;24356;48.460;11.450;2023-04-03T07:46:35;4.50;83.60
38592;DHT22;24356;48.460;11.450;2023-04-03T07:49:01;4.60;83.70
38592;DHT22;24356;48.460;11.450;2023-04-03T07:51:27;4.60;83.60
38592;DHT22;24356;48.460;11.450;2023-04-03T07:53:53;4.70;83.60
38592;DHT22;24356;48.460;11.450;2023-04-03T07:56:19;4.70;83.40
38592;DHT22;24356;48.460;11.450;2023-04-03T07:58:46;4.80;83.60
38592;DHT22;24356;48.460;11.450;2023-04-03T08:01:12;4.80;83.70
38592;DHT22;24356;48.460;11.450;2023-04-03T08:03:38;4.90;83.60
38592;DHT22;24356;48.460;11.450;2023-04-03T08:06:05;4.90;83.60
38592;DHT22;24356;48.460;11.450;2023-04-03T08:08:32;5.00;83.60
38592;DHT22;24356;48.460;11.450;2023-04-03T08:10:59;5.00;83.60
38592;DHT22;24356;48.460;11.450;2023-04-03T08:13:26;5.00;83.40
38592;DHT22;24356;48.460;11.450;2023-04-03T08:15:51;5.10;83.30
38592;DHT22;24356;48.460;11.450;2023-04-03T08:18:17;5.10;83.00
38592;DHT22;24356;48.460;11.450;2023-04-03T08:20:44;5.20;82.90
38592;DHT22;24356;48.460;11.450;2023-04-03T08:23:10;5.20;83.00
38592;DHT22;24356;48.460;11.450;2023-04-03T08:25:40;5.20;83.10
38592;DHT22;24356;48.460;11.450;2023-04-03T08:28:06;5.30;82.90
38592;DHT22;24356;48.460;11.450;2023-04-03T08:30:32;5.30;82.60
38592;DHT22;24356;48.460;11.450;2023-04-03T08:33:00;5.40;82.70
38592;DHT22;24356;48.460;11.450;2023-04-03T08:35:27;5.40;82.60
38592;DHT22;24356;48.460;11.450;2023-04-03T08:37:52;5.50;82.60
38592;DHT22;24356;48.460;11.450;2023-04-03T08:40:18;5.50;82.50
38592;DHT22;24356;48.460;11.450;2023-04-03T08:42:58;5.60;82.40
38592;DHT22;24356;48.460;11.450;2023-04-03T08:45:51;5.70;82.50
38592;DHT22;24356;48.460;11.450;2023-04-03T08:48:42;5.80;82.70
38592;DHT22;24356;48.460;11.450;2023-04-03T08:51:20;6.00;82.70
38592;DHT22;24356;48.460;11.450;2023-04-03T08:54:05;6.20;82.40
38592;DHT22;24356;48.460;11.450;2023-04-03T08:56:33;6.40;81.80
38592;DHT22;24356;48.460;11.450;2023-04-03T08:59:05;6.40;81.40
38592;DHT22;24356;48.460;11.450;2023-04-03T09:01:38;6.40;81.00
38592;DHT22;24356;48.460;11.450;2023-04-03T09:04:11;6.50;80.60
38592;DHT22;24356;48.460;11.450;2023-04-03T09:06:38;6.50;80.90
38592;DHT22;24356;48.460;11.450;2023-04-03T09:14:41;6.50;80.70
38592;DHT22;24356;48.460;11.450;2023-04-03T09:17:33;6.60;80.50
38592;DHT22;24356;48.460;11.450;2023-04-03T09:22:43;6.60;79.80
38592;DHT22;24356;48.460;11.450;2023-04-03T09:25:22;6.60;80.10
38592;DHT22;24356;48.460;11.450;2023-04-03T09:27:48;6.70;80.10
38592;DHT22;24356;48.460;11.450;2023-04-03T09:30:22;6.70;79.80
38592;DHT22;24356;48.460;11.450;2023-04-03T09:32:53;6.70;79.50
38592;DHT22;24356;48.460;11.450;2023-04-03T09:35:28;6.70;79.20
38592;DHT22;24356;48.460;11.450;2023-04-03T09:38:02;6.70;79.00
38592;DHT22;24356;48.460;11.450;2023-04-03T09:40:44;6.70;78.80
38592;DHT22;24356;48.460;11.450;2023-04-03T09:45:43;6.70;78.50
38592;DHT22;24356;48.460;11.450;2023-04-03T09:48:17;6.80;78.90
38592;DHT22;24356;48.460;11.450;2023-04-03T09:51:03;6.80;79.10
38592;DHT22;24356;48.460;11.450;2023-04-03T09:53:41;6.90;79.20
38592;DHT22;24356;48.460;11.450;2023-04-03T09:58:47;7.20;79.00
38592;DHT22;24356;48.460;11.450;2023-04-03T10:01:23;7.40;79.20
38592;DHT22;24356;48.460;11.450;2023-04-03T10:06:39;7.70;78.90
38592;DHT22;24356;48.460;11.450;2023-04-03T10:14:27;8.60;77.60
38592;DHT22;24356;48.460;11.450;2023-04-03T10:19:42;8.80;76.80
38592;DHT22;24356;48.460;11.450;2023-04-03T10:27:18;8.80;76.00
38592;DHT22;24356;48.460;11.450;2023-04-03T10:29:52;8.80;75.50
38592;DHT22;24356;48.460;11.450;2023-04-03T10:41:05;9.10;75.10
38592;DHT22;24356;48.460;11.450;2023-04-03T10:46:36;9.50;74.60
38592;DHT22;24356;48.460;11.450;2023-04-03T10:55:08;10.10;73.90
38592;DHT22;24356;48.460;11.450;2023-04-03T10:57:40;10.20;73.50
38592;DHT22;24356;48.460;11.450;2023-04-03T11:00:16;10.30;73.00
38592;DHT22;24356;48.460;11.450;2023-04-03T11:02:56;10.30;73.60
38592;DHT22;24356;48.460;11.450;2023-04-03T11:05:37;10.40;74.20
38592;DHT22;24356;48.460;11.450;2023-04-03T11:10:50;10.30;73.40
38592;DHT22;24356;48.460;11.450;2023-04-03T11:13:30;10.30;73.60
38592;DHT22;24356;48.460;11.450;2023-04-03T11:15:58;10.20;73.00
38592;DHT22;24356;48.460;11.450;2023-04-03T11:18:47;10.20;73.30
38592;DHT22;24356;48.460;11.450;2023-04-03T11:21:45;10.10;72.60
38592;DHT22;24356;48.460;11.450;2023-04-03T11:24:22;10.00;73.30
38592;DHT22;24356;48.460;11.450;2023-04-03T11:26:50;10.00;73.50
38592;DHT22;24356;48.460;11.450;2023-04-03T11:29:24;10.00;74.10
38592;DHT22;24356;48.460;11.450;2023-04-03T11:32:15;10.00;73.90
38592;DHT22;24356;48.460;11.450;2023-04-03T11:34:49;10.10;74.10
38592;DHT22;24356;48.460;11.450;2023-04-03T11:37:39;10.20;74.00
38592;DHT22;24356;48.460;11.450;2023-04-03T11:40:25;10.30;73.60
38592;DHT22;24356;48.460;11.450;2023-04-03T11:45:29;10.70;74.20
38592;DHT22;24356;48.460;11.450;2023-04-03T11:50:46;11.00;73.60
38592;DHT22;24356;48.460;11.450;2023-04-03T11:58:24;10.90;72.20
38592;DHT22;24356;48.460;11.450;2023-04-03T12:14:23;11.40;73.70
38592;DHT22;24356;48.460;11.450;2023-04-03T12:16:27;11.60;73.30
38592;DHT22;24356;48.460;11.450;2023-04-03T12:21:23;12.00;73.30
38592;DHT22;24356;48.460;11.450;2023-04-03T12:24:03;12.00;73.90
38592;DHT22;24356;48.460;11.450;2023-04-03T12:26:40;12.00;73.10
38592;DHT22;24356;48.460;11.450;2023-04-03T12:29:20;11.90;72.40
38592;DHT22;24356;48.460;11.450;2023-04-03T12:37:39;11.40;71.10
38592;DHT22;24356;48.460;11.450;2023-04-03T12:40:16;11.10;71.10
38592;DHT22;24356;48.460;11.450;2023-04-03T12:45:47;10.70;71.60
38592;DHT22;24356;48.460;11.450;2023-04-03T12:48:24;10.50;71.50
38592;DHT22;24356;48.460;11.450;2023-04-03T12:50:51;10.40;72.00
38592;DHT22;24356;48.460;11.450;2023-04-03T12:53:26;10.30;71.90
38592;DHT22;24356;48.460;11.450;2023-04-03T12:56:23;10.20;71.90
38592;DHT22;24356;48.460;11.450;2023-04-03T12:58:50;10.10;71.90
38592;DHT22;24356;48.460;11.450;2023-04-03T13:01:20;10.00;72.00
38592;DHT22;24356;48.460;11.450;2023-04-03T13:03:57;10.00;71.90
38592;DHT22;24356;48.460;11.450;2023-04-03T13:06:30;10.00;72.30
38592;DHT22;24356;48.460;11.450;2023-04-03T13:08:59;10.00;72.70
38592;DHT22;24356;48.460;11.450;2023-04-03T13:11:28;10.10;73.00
38592;DHT22;24356;48.460;11.450;2023-04-03T13:13:58;10.20;73.00
38592;DHT22;24356;48.460;11.450;2023-04-03T13:16:24;10.30;73.50
38592;DHT22;24356;48.460;11.450;2023-04-03T13:18:52;10.50;74.30
38592;DHT22;24356;48.460;11.450;2023-04-03T13:21:27;10.70;74.90
38592;DHT22;24356;48.460;11.450;2023-04-03T13:23:57;11.00;74.80
38592;DHT22;24356;48.460;11.450;2023-04-03T13:26:26;11.30;75.10
38592;DHT22;24356;48.460;11.450;2023-04-03T13:28:55;11.60;75.30
38592;DHT22;24356;48.460;11.450;2023-04-03T13:31:33;11.90;74.80
38592;DHT22;24356;48.460;11.450;2023-04-03T13:34:15;12.20;74.60
38592;DHT22;24356;48.460;11.450;2023-04-03T13:36:55;12.50;74.10
38592;DHT22;24356;48.460;11.450;2023-04-03T13:39:23;12.80;74.10
38592;DHT22;24356;48.460;11.450;2023-04-03T13:41:51;12.90;73.50
38592;DHT22;24356;48.460;11.450;2023-04-03T13:46:51;13.10;74.00
38592;DHT22;24356;48.460;11.450;2023-04-03T13:49:41;13.20;74.90
38592;DHT22;24356;48.460;11.450;2023-04-03T13:52:27;13.30;74.60
38592;DHT22;24356;48.460;11.450;2023-04-03T13:54:59;13.50;74.00
38592;DHT22;24356;48.460;11.450;2023-04-03T13:57:26;13.60;74.00
38592;DHT22;24356;48.460;11.450;2023-04-03T13:59:52;13.60;75.40
38592;DHT22;24356;48.460;11.450;2023-04-03T14:02:22;13.60;75.20
38592;DHT22;24356;48.460;11.450;2023-04-03T14:04:58;13.50;74.50
38592;DHT22;24356;48.460;11.450;2023-04-03T14:07:27;13.40;72.90
38592;DHT22;24356;48.460;11.450;2023-04-03T14:09:53;13.20;71.60
38592;DHT22;24356;48.460;11.450;2023-04-03T14:12:37;13.00;72.20
38592;DHT22;24356;48.460;11.450;2023-04-03T14:15:15;12.90;73.10
38592;DHT22;24356;48.460;11.450;2023-04-03T14:17:41;12.90;73.90
38592;DHT22;24356;48.460;11.450;2023-04-03T14:20:15;13.00;74.90
38592;DHT22;24356;48.460;11.450;2023-04-03T14:22:40;13.10;76.50
38592;DHT22;24356;48.460;11.450;2023-04-03T14:25:06;13.30;77.20
38592;DHT22;24356;48.460;11.450;2023-04-03T14:27:38;13.40;77.80
38592;DHT22;24356;48.460;11.450;2023-04-03T14:30:11;13.50;77.90
38592;DHT22;24356;48.460;11.450;2023-04-03T14:32:37;13.60;76.20
38592;DHT22;24356;48.460;11.450;2023-04-03T14:35:03;13.50;74.90
38592;DHT22;24356;48.460;11.450;2023-04-03T14:37:30;13.30;73.90
38592;DHT22;24356;48.460;11.450;2023-04-03T14:39:57;13.10;73.00
38592;DHT22;24356;48.460;11.450;2023-04-03T14:42:27;12.90;71.90
38592;DHT22;24356;48.460;11.450;2023-04-03T14:44:52;12.70;71.50
38592;DHT22;24356;48.460;11.450;2023-04-03T14:47:25;12.60;72.30
38592;DHT22;24356;48.460;11.450;2023-04-03T14:49:51;12.50;72.10
38592;DHT22;24356;48.460;11.450;2023-04-03T14:52:23;12.40;71.60
38592;DHT22;24356;48.460;11.450;2023-04-03T14:54:51;12.20;70.30
38592;DHT22;24356;48.460;11.450;2023-04-03T14:57:17;12.10;70.30
38592;DHT22;24356;48.460;11.450;2023-04-03T14:59:44;11.90;70.90
38592;DHT22;24356;48.460;11.450;2023-04-03T15:02:34;11.90;70.90
38592;DHT22;24356;48.460;11.450;2023-04-03T15:05:03;11.90;71.80
38592;DHT22;24356;48.460;11.450;2023-04-03T15:07:34;11.90;71.80
38592;DHT22;24356;48.460;11.450;2023-04-03T15:10:28;11.90;71.20
38592;DHT22;24356;48.460;11.450;2023-04-03T15:12:54;11.70;70.30
38592;DHT22;24356;48.460;11.450;2023-04-03T15:15:23;11.60;69.90
38592;DHT22;24356;48.460;11.450;2023-04-03T15:17:56;11.50;69.20
38592;DHT22;24356;48.460;11.450;2023-04-03T15:20:26;11.30;68.90
38592;DHT22;24356;48.460;11.450;2023-04-03T15:22:53;11.30;69.70
38592;DHT22;24356;48.460;11.450;2023-04-03T15:25:18;11.30;71.20
38592;DHT22;24356;48.460;11.450;2023-04-03T15:27:44;11.40;70.90
38592;DHT22;24356;48.460;11.450;2023-04-03T15:30:15;11.50;70.80
38592;DHT22;24356;48.460;11.450;2023-04-03T15:32:42;11.60;69.80
38592;DHT22;24356;48.460;11.450;2023-04-03T15:35:08;11.60;68.90
38592;DHT22;24356;48.460;11.450;2023-04-03T15:37:33;11.60;68.90
38592;DHT22;24356;48.460;11.450;2023-04-03T15:39:59;11.40;67.40
38592;DHT22;24356;48.460;11.450;2023-04-03T15:42:25;11.00;65.20
38592;DHT22;24356;48.460;11.450;2023-04-03T15:44:50;10.80;67.10
38592;DHT22;24356;48.460;11.450;2023-04-03T15:47:16;10.70;67.40
38592;DHT22;24356;48.460;11.450;2023-04-03T15:49:42;10.60;66.60
38592;DHT22;24356;48.460;11.450;2023-04-03T15:52:07;10.40;66.90
38592;DHT22;24356;48.460;11.450;2023-04-03T15:54:33;10.20;67.20
38592;DHT22;24356;48.460;11.450;2023-04-03T15:56:59;10.20;67.40
38592;DHT22;24356;48.460;11.450;2023-04-03T15:59:24;10.10;68.30
38592;DHT22;24356;48.460;11.450;2023-04-03T16:01:51;10.10;68.00
38592;DHT22;24356;48.460;11.450;2023-04-03T16:04:18;10.10;68.50
38592;DHT22;24356;48.460;11.450;2023-04-03T16:06:44;10.10;68.10
38592;DHT22;24356;48.460;11.450;2023-04-03T16:09:09;10.10;67.60
38592;DHT22;24356;48.460;11.450;2023-04-03T16:11:36;10.10;67.70
38592;DHT22;24356;48.460;11.450;2023-04-03T16:14:04;10.00;67.40
38592;DHT22;24356;48.460;11.450;2023-04-03T16:16:30;9.90;67.50
38592;DHT22;24356;48.460;11.450;2023-04-03T16:18:56;9.80;67.40
38592;DHT22;24356;48.460;11.450;2023-04-03T16:21:22;9.70;66.90
38592;DHT22;24356;48.460;11.450;2023-04-03T16:23:48;9.50;66.80
38592;DHT22;24356;48.460;11.450;2023-04-03T16:26:14;9.40;67.10
38592;DHT22;24356;48.460;11.450;2023-04-03T16:28:40;9.20;67.00
38592;DHT22;24356;48.460;11.450;2023-04-03T16:31:07;9.10;67.40
38592;DHT22;24356;48.460;11.450;2023-04-03T16:33:33;9.00;67.60
38592;DHT22;24356;48.460;11.450;2023-04-03T16:35:59;8.90;67.80
38592;DHT22;24356;48.460;11.450;2023-04-03T16:38:25;8.70;67.90
38592;DHT22;24356;48.460;11.450;2023-04-03T16:40:50;8.70;68.10
38592;DHT22;24356;48.460;11.450;2023-04-03T16:43:17;8.60;68.50
38592;DHT22;24356;48.460;11.450;2023-04-03T16:45:43;8.50;68.30
38592;DHT22;24356;48.460;11.450;2023-04-03T16:48:08;8.40;68.10
38592;DHT22;24356;48.460;11.450;2023-04-03T16:50:34;8.30;68.60
38592;DHT22;24356;48.460;11.450;2023-04-03T16:53:00;8.20;68.40
38592;DHT22;24356;48.460;11.450;2023-04-03T16:55:28;8.10;68.40
38592;DHT22;24356;48.460;11.450;2023-04-03T16:57:53;8.00;68.50
38592;DHT22;24356;48.460;11.450;2023-04-03T17:00:19;7.90;68.70
38592;DHT22;24356;48.460;11.450;2023-04-03T17:02:45;7.80;68.70
38592;DHT22;24356;48.460;11.450;2023-04-03T17:05:11;7.70;68.80
38592;DHT22;24356;48.460;11.450;2023-04-03T17:07:36;7.60;68.90
38592;DHT22;24356;48.460;11.450;2023-04-03T17:10:02;7.50;69.20
38592;DHT22;24356;48.460;11.450;2023-04-03T17:12:28;7.40;69.50